Time;durP1;ratioP1;P1;durP2;ratioP2;P2;SDS_P1;SDS_P2;PMS_P1;PMS_P2;Temp;Humidity;BMP_temperature;BMP_pressure;BME280_temperature;BME280_humidity;BME280_pressure;Samples;Min_cycle;Max_cycle;Signal;HPM_P1;HPM_P2
2023/07/27 00:00:51;;;;;;;2.53;0.90;;;;;;;29.57;48.07;98463.06;2089689;28;20305;-50
2023/07/27 00:01:53;;;;;;;1.73;0.80;;;;;;;29.57;48.14;98464.97;2086808;28;20232;-52
2023/07/27 00:02:54;;;;;;;1.10;0.60;;;;;;;29.57;48.27;98465.78;2091968;28;20049;-51
2023/07/27 00:03:56;;;;;;;0.98;0.63;;;;;;;29.58;48.07;98458.41;2081575;28;20097;-48
2023/07/27 00:04:56;;;;;;;0.70;0.40;;;;;;;29.54;48.15;98458.16;2089502;28;20049;-48
2023/07/27 00:05:58;;;;;;;1.20;0.60;;;;;;;29.57;48.08;98460.31;2087438;28;20052;-49
2023/07/27 00:06:59;;;;;;;2.65;0.55;;;;;;;29.54;48.19;98458.16;2091041;28;20048;-49
2023/07/27 00:08:01;;;;;;;0.80;0.60;;;;;;;29.56;47.97;98458.72;2089258;28;20048;-48
2023/07/27 00:09:02;;;;;;;1.05;0.90;;;;;;;29.54;48.17;98457.34;2091117;28;20047;-47
2023/07/27 00:10:04;;;;;;;1.67;0.55;;;;;;;29.54;48.02;98452.69;2091325;28;20059;-48
2023/07/27 00:11:05;;;;;;;1.02;0.30;;;;;;;29.55;48.21;98454.31;2090980;28;20052;-49
2023/07/27 00:12:07;;;;;;;1.17;0.98;;;;;;;29.55;48.07;98446.13;2089046;28;20487;-49
2023/07/27 00:13:08;;;;;;;0.98;0.60;;;;;;;29.53;48.13;98440.13;2087593;28;20049;-49
2023/07/27 00:14:10;;;;;;;2.20;0.52;;;;;;;29.53;48.17;98442.03;2089785;28;20068;-48
2023/07/27 00:15:10;;;;;;;1.23;0.57;;;;;;;29.53;48.18;98448.34;2090858;28;20486;-48
2023/07/27 00:16:14;;;;;;;0.65;0.45;;;;;;;29.53;48.20;98440.13;2090806;28;20059;-50
2023/07/27 00:17:15;;;;;;;2.28;0.63;;;;;;;29.53;48.09;98442.03;2090330;28;20059;-49
2023/07/27 00:18:16;;;;;;;1.63;0.60;;;;;;;29.52;48.02;98435.75;2089781;28;20072;-48
2023/07/27 00:19:17;;;;;;;0.63;0.38;;;;;;;29.52;48.12;98435.75;2090768;28;20048;-49
2023/07/27 00:20:19;;;;;;;1.00;0.60;;;;;;;29.52;48.29;98448.59;2091312;28;20101;-48
2023/07/27 00:21:21;;;;;;;1.25;0.52;;;;;;;29.52;48.04;98449.41;2090129;28;20131;-49
2023/07/27 00:22:22;;;;;;;1.48;0.70;;;;;;;29.52;48.19;98448.59;2087805;28;20418;-51
2023/07/27 00:23:23;;;;;;;1.40;0.47;;;;;;;29.51;47.92;98445.06;2088352;28;20064;-47
2023/07/27 00:24:25;;;;;;;1.48;0.40;;;;;;;29.52;47.98;98452.16;2088057;28;20060;-49
2023/07/27 00:25:26;;;;;;;0.55;0.55;;;;;;;29.51;48.03;98445.06;2090395;28;20052;-51
2023/07/27 00:26:27;;;;;;;1.00;0.57;;;;;;;29.52;47.97;98445.88;2091467;28;20052;-47
2023/07/27 00:27:28;;;;;;;1.23;0.52;;;;;;;29.50;48.13;98446.13;2088116;28;20505;-47
2023/07/27 00:28:30;;;;;;;3.42;0.95;;;;;;;29.52;48.21;98452.16;2089518;28;20052;-49
2023/07/27 00:29:31;;;;;;;0.90;0.65;;;;;;;29.51;48.21;98453.25;2087297;28;20518;-48
2023/07/27 00:30:33;;;;;;;2.08;0.80;;;;;;;29.50;48.11;98448.88;2088359;28;20056;-48
2023/07/27 00:31:35;;;;;;;2.17;0.73;;;;;;;29.51;47.99;98447.78;2088951;28;20052;-51
2023/07/27 00:32:37;;;;;;;0.93;0.50;;;;;;;29.50;48.07;98446.13;2086022;28;20054;-48
2023/07/27 00:33:37;;;;;;;1.13;0.43;;;;;;;29.50;48.13;98448.88;2089900;28;20534;-48
2023/07/27 00:34:39;;;;;;;1.58;0.68;;;;;;;29.49;48.16;98441.78;2091362;28;20062;-50
2023/07/27 00:35:40;;;;;;;0.63;0.50;;;;;;;29.50;48.29;98448.88;2087722;28;20045;-47
2023/07/27 00:36:41;;;;;;;1.48;0.50;;;;;;;29.49;47.95;98446.44;2090869;28;20052;-49
2023/07/27 00:37:42;;;;;;;1.27;0.73;;;;;;;29.49;48.08;98444.50;2092399;28;21965;-48
2023/07/27 00:38:44;;;;;;;1.17;0.80;;;;;;;29.49;48.11;98447.25;2089138;28;20379;-47
2023/07/27 00:39:45;;;;;;;1.00;0.50;;;;;;;29.49;48.21;98452.72;2093260;28;20053;-48
2023/07/27 00:40:46;;;;;;;1.88;0.52;;;;;;;29.48;48.01;98445.63;2090870;28;20049;-48
2023/07/27 00:41:48;;;;;;;3.10;0.70;;;;;;;29.49;47.91;98455.44;2091903;28;20041;-48
2023/07/27 00:42:49;;;;;;;1.13;0.70;;;;;;;29.50;48.05;98453.53;2091732;28;20051;-51
2023/07/27 00:43:50;;;;;;;2.58;0.80;;;;;;;29.49;48.37;98446.44;2092471;28;20167;-47
2023/07/27 00:44:51;;;;;;;1.15;0.40;;;;;;;29.50;48.02;98448.06;2089639;28;20056;-48
2023/07/27 00:45:53;;;;;;;0.73;0.60;;;;;;;29.48;47.96;98439.34;2091082;28;20067;-50
2023/07/27 00:46:56;;;;;;;0.60;0.60;;;;;;;29.48;48.03;98442.06;2092456;28;20037;-49
2023/07/27 00:47:57;;;;;;;1.58;0.70;;;;;;;29.49;48.00;98446.44;2089032;28;20247;-51
2023/07/27 00:48:58;;;;;;;0.85;0.60;;;;;;;29.49;48.05;98446.44;2090090;28;20507;-49
2023/07/27 00:50:00;;;;;;;0.80;0.57;;;;;;;29.48;48.01;98451.09;2090132;28;20052;-47
2023/07/27 00:51:01;;;;;;;2.42;0.60;;;;;;;29.47;48.14;98454.09;2090638;28;20506;-48
2023/07/27 00:52:07;;;;;;;1.85;0.68;;;;;;;29.48;48.05;98451.09;2091212;28;20051;-47
2023/07/27 00:53:09;;;;;;;0.40;0.40;;;;;;;29.47;47.97;98456.81;2091309;28;20040;-48
2023/07/27 00:54:12;;;;;;;0.68;0.60;;;;;;;29.46;48.35;98456.00;2092306;28;20290;-47
2023/07/27 00:55:12;;;;;;;0.95;0.77;;;;;;;29.46;48.07;98447.81;2089563;28;20073;-48
2023/07/27 00:56:15;;;;;;;1.30;0.43;;;;;;;29.46;48.22;98450.53;2089583;28;20387;-47
2023/07/27 00:57:17;;;;;;;0.95;0.60;;;;;;;29.46;48.18;98453.28;2092133;28;20499;-48
2023/07/27 00:58:19;;;;;;;1.17;0.55;;;;;;;29.45;48.21;98450.81;2089706;28;20052;-48
2023/07/27 00:59:20;;;;;;;0.85;0.45;;;;;;;29.44;48.05;98449.19;2092116;28;20052;-48
2023/07/27 01:00:22;;;;;;;1.27;0.40;;;;;;;29.46;48.20;98458.75;2091861;28;20116;-49
2023/07/27 01:01:23;;;;;;;2.45;0.80;;;;;;;29.46;48.21;98457.94;2091567;28;20053;-50
2023/07/27 01:02:26;;;;;;;1.17;0.68;;;;;;;29.45;48.27;98456.28;2091072;28;20426;-49
2023/07/27 01:03:27;;;;;;;0.63;0.40;;;;;;;29.44;48.07;98455.47;2092755;28;20044;-50
2023/07/27 01:04:29;;;;;;;3.10;1.10;;;;;;;29.43;48.16;98455.75;2093165;28;20135;-48
2023/07/27 01:05:30;;;;;;;1.08;0.68;;;;;;;29.43;47.92;98455.75;2090283;28;20052;-50
2023/07/27 01:06:32;;;;;;;0.95;0.70;;;;;;;29.42;48.09;98456.84;2091574;28;20052;-47
2023/07/27 01:07:33;;;;;;;1.55;0.52;;;;;;;29.39;48.20;98453.59;2092230;28;20414;-48
2023/07/27 01:08:35;;;;;;;1.15;0.50;;;;;;;29.41;48.28;98456.03;2090414;28;20297;-50
2023/07/27 01:09:37;;;;;;;0.55;0.50;;;;;;;29.42;48.10;98454.94;2090406;28;20117;-48
2023/07/27 01:10:49;;;;;;;1.02;0.65;;;;;;;29.41;48.50;98453.28;2090667;28;20044;-49
2023/07/27 01:12:03;;;;;;;0.70;0.52;;;;;;;29.41;48.02;98461.47;2090675;28;20083;-47
2023/07/27 01:13:12;;;;;;;0.60;0.47;;;;;;;29.40;48.13;98463.41;2088597;28;20507;-48
2023/07/27 01:14:24;;;;;;;1.08;0.50;;;;;;;29.39;48.30;98458.22;2090964;28;20418;-48
2023/07/27 01:15:30;;;;;;;1.35;0.30;;;;;;;29.39;48.20;98460.94;2090119;28;20093;-50
2023/07/27 01:16:49;;;;;;;1.27;0.70;;;;;;;29.38;48.38;98459.31;2091360;28;20461;-48
2023/07/27 01:17:56;;;;;;;1.30;0.82;;;;;;;29.38;48.26;98451.13;2088419;28;20055;-47
2023/07/27 01:19:11;;;;;;;1.17;0.63;;;;;;;29.38;48.47;98459.31;2089987;28;20041;-47
2023/07/27 01:20:24;;;;;;;0.85;0.60;;;;;;;29.38;48.50;98457.41;2091166;28;20052;-49
2023/07/27 01:21:31;;;;;;;1.75;0.52;;;;;;;29.37;48.15;98461.22;2090361;28;20066;-48
2023/07/27 01:22:49;;;;;;;2.88;0.40;;;;;;;29.35;48.11;98459.88;2087733;28;20036;-48
2023/07/27 01:24:37;;;;;;;2.20;0.60;;;;;;;29.34;48.29;98455.53;2090186;28;20048;-49
2023/07/27 01:26:06;;;;;;;1.05;0.50;;;;;;;29.30;48.36;98454.44;2087219;28;20450;-48
2023/07/27 01:27:33;;;;;;;0.63;0.55;;;;;;;29.29;48.34;98448.16;2087132;28;20116;-47
2023/07/27 01:28:54;;;;;;;1.08;0.90;;;;;;;29.29;48.49;98453.63;2090777;28;20063;-49
2023/07/27 01:30:18;;;;;;;;;;;;;;;29.22;48.45;98455.00;2090970;28;20107;-48
2023/07/27 01:31:23;;;;;;;2.28;0.50;;;;;;;29.25;48.50;98451.69;2092675;28;19924;-48
2023/07/27 01:32:28;;;;;;;0.88;0.75;;;;;;;29.30;48.42;98454.44;2089937;28;20049;-48
2023/07/27 01:33:32;;;;;;;1.15;0.35;;;;;;;29.34;48.42;98455.53;2085898;28;20045;-48
2023/07/27 01:34:35;;;;;;;2.20;0.50;;;;;;;29.34;48.23;98453.59;2088894;28;20044;-48
2023/07/27 01:35:43;;;;;;;0.82;0.63;;;;;;;29.35;48.15;98451.69;2089321;28;20053;-47
2023/07/27 01:36:49;;;;;;;1.13;0.52;;;;;;;29.36;48.36;98453.31;2090712;28;20052;-48
2023/07/27 01:37:54;;;;;;;0.98;0.60;;;;;;;29.33;48.33;98454.69;2091697;28;20067;-49
2023/07/27 01:39:02;;;;;;;0.73;0.52;;;;;;;29.34;48.50;98452.78;2087819;28;20056;-53
2023/07/27 01:40:05;;;;;;;0.90;0.47;;;;;;;29.34;48.23;98452.78;2087176;28;20208;-50
2023/07/27 01:41:09;;;;;;;1.98;0.38;;;;;;;29.34;48.25;98456.34;2089984;28;20055;-50
2023/07/27 01:42:13;;;;;;;1.92;0.70;;;;;;;29.34;48.26;98450.88;2088587;28;20419;-48
2023/07/27 01:43:16;;;;;;;1.80;0.70;;;;;;;29.35;48.30;98451.69;2090471;28;20037;-47
2023/07/27 01:44:18;;;;;;;1.48;0.50;;;;;;;29.35;48.28;98454.41;2092845;28;20047;-49
2023/07/27 01:45:22;;;;;;;1.88;0.98;;;;;;;29.35;48.00;98448.94;2091394;28;20140;-48
2023/07/27 01:46:24;;;;;;;1.85;0.65;;;;;;;29.34;48.32;98450.06;2090986;28;20510;-49
2023/07/27 01:47:28;;;;;;;1.42;0.60;;;;;;;29.34;48.24;98448.13;2091831;28;20162;-48
2023/07/27 01:48:29;;;;;;;1.13;0.57;;;;;;;29.35;48.46;98448.94;2089470;28;20052;-51
2023/07/27 01:49:33;;;;;;;0.80;0.68;;;;;;;29.34;48.29;98458.25;2092007;28;20293;-48
2023/07/27 01:50:34;;;;;;;3.08;1.20;;;;;;;29.33;48.26;98451.94;2089832;28;20052;-48
2023/07/27 01:51:39;;;;;;;1.00;0.60;;;;;;;29.34;48.07;98452.78;2087744;28;20136;-47
2023/07/27 01:52:41;;;;;;;2.08;0.90;;;;;;;29.33;48.31;98448.41;2090457;28;20905;-50
2023/07/27 01:53:44;;;;;;;1.63;0.60;;;;;;;29.34;48.39;98447.31;2090461;28;20069;-49
2023/07/27 01:54:46;;;;;;;0.90;0.40;;;;;;;29.33;48.14;98443.75;2091958;28;20055;-48
2023/07/27 01:55:50;;;;;;;1.85;0.57;;;;;;;29.32;48.18;98446.78;2092794;28;21139;-50
2023/07/27 01:56:54;;;;;;;1.63;0.50;;;;;;;29.33;48.11;98454.69;2090599;28;20041;-51
2023/07/27 01:57:59;;;;;;;2.00;0.50;;;;;;;29.32;48.49;98452.25;2088875;28;20322;-47
2023/07/27 01:59:01;;;;;;;0.80;0.60;;;;;;;29.31;48.33;98450.59;2092436;28;20677;-48
2023/07/27 02:00:03;;;;;;;0.55;0.45;;;;;;;29.31;48.23;98450.59;2091658;28;20072;-50
2023/07/27 02:01:04;;;;;;;1.40;0.60;;;;;;;29.31;48.27;98453.31;2090740;28;20048;-48
2023/07/27 02:02:08;;;;;;;1.00;0.50;;;;;;;29.33;48.37;98456.59;2091454;28;20120;-51
2023/07/27 02:03:10;;;;;;;1.63;0.70;;;;;;;29.30;48.11;98455.22;2090407;28;20075;-50
2023/07/27 02:04:12;;;;;;;1.75;0.25;;;;;;;29.31;48.32;98461.50;2089101;28;20048;-50
2023/07/27 02:05:13;;;;;;;0.90;0.40;;;;;;;29.31;48.27;98458.78;2090170;28;20044;-48
2023/07/27 02:06:15;;;;;;;1.35;0.60;;;;;;;29.30;48.24;98455.22;2089415;28;20040;-48
2023/07/27 02:07:17;;;;;;;0.95;0.40;;;;;;;29.31;48.27;98458.78;2090252;28;20037;-49
2023/07/27 02:08:19;;;;;;;0.80;0.52;;;;;;;29.31;48.11;98456.06;2092309;28;20464;-49
2023/07/27 02:09:19;;;;;;;0.68;0.50;;;;;;;29.30;48.29;98463.44;2091077;28;20563;-48
2023/07/27 02:10:22;;;;;;;0.80;0.63;;;;;;;29.30;48.54;98459.88;2089326;28;20044;-49
2023/07/27 02:11:25;;;;;;;2.42;0.63;;;;;;;29.30;48.40;98460.69;2090465;28;20053;-48
2023/07/27 02:12:33;;;;;;;0.80;0.60;;;;;;;29.32;48.32;98463.16;2091496;28;20052;-48
2023/07/27 02:13:41;;;;;;;1.45;0.68;;;;;;;29.28;48.21;98468.38;2090533;28;20526;-53
2023/07/27 02:14:48;;;;;;;1.05;0.60;;;;;;;29.28;48.30;98465.66;2091356;28;20244;-49
2023/07/27 02:16:07;;;;;;;0.88;0.65;;;;;;;29.24;48.39;98466.47;2090954;28;20109;-50
2023/07/27 02:17:16;;;;;;;1.00;0.90;;;;;;;29.26;48.38;98467.03;2092436;28;20076;-47
2023/07/27 02:18:21;;;;;;;1.33;0.40;;;;;;;29.27;48.37;98472.19;2092082;28;20121;-51
2023/07/27 02:19:30;;;;;;;2.75;0.80;;;;;;;29.28;48.46;98468.38;2089488;28;20045;-49
2023/07/27 02:20:34;;;;;;;0.82;0.50;;;;;;;29.25;48.42;98465.38;2089323;28;20056;-52
2023/07/27 02:21:37;;;;;;;0.88;0.40;;;;;;;29.25;48.22;98466.16;2080704;28;20064;-47
2023/07/27 02:22:40;;;;;;;1.92;0.73;;;;;;;29.27;48.30;98472.19;2087218;28;20052;-50
2023/07/27 02:23:42;;;;;;;0.70;0.50;;;;;;;29.28;48.27;98467.53;2091945;28;20040;-50
2023/07/27 02:24:43;;;;;;;1.55;0.80;;;;;;;29.28;48.30;98467.53;2086123;28;20068;-50
2023/07/27 02:25:45;;;;;;;1.95;0.68;;;;;;;29.26;48.23;98467.84;2083333;28;20131;-49
2023/07/27 02:26:46;;;;;;;0.38;0.38;;;;;;;29.27;48.38;98468.63;2084430;28;20049;-52
2023/07/27 02:27:48;;;;;;;1.83;0.50;;;;;;;29.27;48.14;98472.19;2081733;28;20135;-49
2023/07/27 02:28:49;;;;;;;0.70;0.50;;;;;;;29.28;48.12;98462.91;2081590;28;20049;-49
2023/07/27 02:29:50;;;;;;;0.75;0.43;;;;;;;29.27;48.40;98465.91;2083645;28;20111;-48
2023/07/27 02:30:51;;;;;;;1.80;0.85;;;;;;;29.26;48.20;98472.47;2080730;28;20057;-47
2023/07/27 02:31:52;;;;;;;1.08;0.57;;;;;;;29.27;48.29;98465.91;2082602;28;20064;-49
2023/07/27 02:32:55;;;;;;;0.55;0.43;;;;;;;29.28;48.42;98473.00;2084508;28;20048;-49
2023/07/27 02:33:56;;;;;;;1.00;0.73;;;;;;;29.24;48.35;98475.47;2079952;28;20056;-48
2023/07/27 02:34:58;;;;;;;1.08;0.38;;;;;;;29.24;48.29;98480.94;2081806;28;20132;-47
2023/07/27 02:35:58;;;;;;;1.08;0.60;;;;;;;29.24;48.26;98477.41;2082745;28;20437;-48
2023/07/27 02:37:00;;;;;;;0.85;0.47;;;;;;;29.24;48.14;98480.13;2080701;28;20049;-48
2023/07/27 02:38:01;;;;;;;0.25;0.25;;;;;;;29.24;48.30;98477.41;2081117;28;20049;-48
2023/07/27 02:39:03;;;;;;;0.98;0.40;;;;;;;29.24;48.42;98477.41;2082937;28;20072;-48
2023/07/27 02:40:05;;;;;;;0.75;0.32;;;;;;;29.23;48.21;98482.03;2082767;28;20045;-50
2023/07/27 02:41:06;;;;;;;0.80;0.52;;;;;;;29.23;48.30;98484.78;2082256;28;20515;-49
2023/07/27 02:42:07;;;;;;;0.88;0.55;;;;;;;29.23;48.35;98484.78;2081659;28;20045;-49
2023/07/27 02:43:09;;;;;;;1.23;0.52;;;;;;;29.23;48.30;98481.22;2079992;28;20859;-47
2023/07/27 02:44:10;;;;;;;0.57;0.50;;;;;;;29.22;48.54;98485.84;2083738;28;20451;-49
2023/07/27 02:45:12;;;;;;;1.05;0.32;;;;;;;29.23;48.45;98487.50;2083381;28;20055;-47
2023/07/27 02:46:13;;;;;;;1.42;0.40;;;;;;;29.24;48.33;98485.59;2082425;28;20421;-47
2023/07/27 02:47:15;;;;;;;1.33;0.65;;;;;;;29.24;48.07;98482.84;2082011;28;20045;-49
2023/07/27 02:48:17;;;;;;;0.85;0.52;;;;;;;29.25;48.33;98484.47;2090835;28;20047;-58
2023/07/27 02:49:19;;;;;;;1.33;0.80;;;;;;;29.23;48.27;98489.44;2080033;28;20486;-49
2023/07/27 02:50:20;;;;;;;0.98;0.88;;;;;;;29.21;48.53;98484.22;2082545;28;20476;-47
2023/07/27 02:51:23;;;;;;;1.45;0.68;;;;;;;29.22;48.37;98487.78;2082683;28;20094;-50
2023/07/27 02:52:23;;;;;;;0.40;0.38;;;;;;;29.22;48.30;98490.50;2081164;28;20060;-49
2023/07/27 02:53:25;;;;;;;0.70;0.40;;;;;;;29.21;48.29;98489.69;2082938;28;20144;-50
2023/07/27 02:54:26;;;;;;;0.50;0.50;;;;;;;29.22;48.32;98494.03;2083382;28;20049;-48
2023/07/27 02:55:28;;;;;;;0.95;0.40;;;;;;;29.21;48.30;98495.16;2090154;28;20525;-48
2023/07/27 02:56:28;;;;;;;1.75;0.50;;;;;;;29.21;48.26;98494.34;2089348;28;20045;-49
2023/07/27 02:57:32;;;;;;;0.47;0.45;;;;;;;29.21;48.31;98495.16;2090738;28;20048;-48
2023/07/27 02:58:33;;;;;;;0.80;0.50;;;;;;;29.21;48.48;98497.06;2090756;28;20180;-50
2023/07/27 02:59:34;;;;;;;0.40;0.40;;;;;;;29.20;48.39;98493.53;2092476;28;20063;-49
2023/07/27 03:00:35;;;;;;;0.65;0.50;;;;;;;29.21;48.40;98508.00;2088373;28;20044;-49
2023/07/27 03:01:37;;;;;;;1.00;0.40;;;;;;;29.21;48.27;98497.88;2093145;28;20151;-49
2023/07/27 03:02:38;;;;;;;1.58;0.90;;;;;;;29.21;48.28;98499.81;2089980;28;20052;-48
2023/07/27 03:03:41;;;;;;;1.05;0.50;;;;;;;29.21;48.44;98499.81;2089532;28;20044;-48
2023/07/27 03:04:42;;;;;;;2.05;0.70;;;;;;;29.20;48.25;98498.16;2089832;28;20212;-48
2023/07/27 03:05:44;;;;;;;1.35;0.70;;;;;;;29.20;48.39;98501.72;2090439;28;20163;-49
2023/07/27 03:06:44;;;;;;;1.35;0.50;;;;;;;29.18;48.29;98504.72;2088501;28;20376;-48
2023/07/27 03:07:45;;;;;;;1.63;0.70;;;;;;;29.18;48.41;98507.44;2081996;28;20104;-49
2023/07/27 03:08:47;;;;;;;1.52;0.68;;;;;;;29.18;48.19;98506.63;2081951;28;20045;-48
2023/07/27 03:09:50;;;;;;;2.05;0.47;;;;;;;29.18;48.54;98510.19;2082115;28;20041;-48
2023/07/27 03:10:51;;;;;;;1.35;0.57;;;;;;;29.18;48.28;98510.19;2081589;28;20049;-47
2023/07/27 03:11:52;;;;;;;1.67;1.08;;;;;;;29.18;48.29;98515.63;2082503;28;20199;-48
2023/07/27 03:12:53;;;;;;;2.53;0.60;;;;;;;29.17;48.32;98516.75;2082718;28;20041;-48
2023/07/27 03:13:58;;;;;;;1.85;0.40;;;;;;;29.18;48.37;98517.56;2083605;28;20045;-48
2023/07/27 03:14:58;;;;;;;2.70;0.60;;;;;;;29.17;48.29;98516.75;2081309;28;20048;-47
2023/07/27 03:16:03;;;;;;;1.30;0.63;;;;;;;29.17;48.21;98522.22;2085906;28;20054;-48
2023/07/27 03:17:05;;;;;;;0.32;0.30;;;;;;;29.17;48.46;98515.94;2088044;28;20054;-48
2023/07/27 03:18:07;;;;;;;1.48;0.32;;;;;;;29.17;48.14;98515.94;2090165;28;20064;-48
2023/07/27 03:19:09;;;;;;;1.50;0.75;;;;;;;29.16;48.33;98508.81;2088904;28;20048;-49
2023/07/27 03:20:11;;;;;;;0.80;0.60;;;;;;;29.17;48.36;98505.81;2091229;28;20051;-47
2023/07/27 03:21:12;;;;;;;2.40;0.47;;;;;;;29.17;48.28;98511.28;2089268;28;20549;-50
2023/07/27 03:22:13;;;;;;;1.63;0.70;;;;;;;29.17;48.40;98508.56;2091074;28;20082;-49
2023/07/27 03:23:15;;;;;;;0.93;0.60;;;;;;;29.16;48.23;98515.09;2088615;28;20056;-47
2023/07/27 03:24:16;;;;;;;1.42;0.47;;;;;;;29.15;48.25;98513.47;2090440;28;20044;-49
2023/07/27 03:25:18;;;;;;;1.27;0.82;;;;;;;29.15;48.31;98508.00;2080849;28;20044;-48
2023/07/27 03:26:19;;;;;;;0.40;0.40;;;;;;;29.16;48.20;98520.56;2081866;28;20056;-49
2023/07/27 03:27:19;;;;;;;1.10;0.43;;;;;;;29.16;48.44;98519.75;2082067;28;20049;-48
2023/07/27 03:28:21;;;;;;;0.95;0.43;;;;;;;29.15;48.42;98518.13;2081185;28;20423;-48
2023/07/27 03:29:22;;;;;;;1.23;0.80;;;;;;;29.14;48.37;98517.31;2082018;28;20049;-51
2023/07/27 03:30:24;;;;;;;0.98;0.55;;;;;;;29.14;48.52;98511.84;2080021;28;20053;-48
2023/07/27 03:31:27;;;;;;;0.80;0.40;;;;;;;29.14;48.49;98511.84;2080276;28;20409;-46
2023/07/27 03:32:29;;;;;;;1.08;0.60;;;;;;;29.15;48.41;98515.38;2081672;28;20632;-48
2023/07/27 03:33:29;;;;;;;2.20;0.68;;;;;;;29.14;48.46;98517.31;2087730;28;20544;-48
2023/07/27 03:34:32;;;;;;;1.52;0.55;;;;;;;29.14;48.44;98513.72;2083378;28;20135;-49
2023/07/27 03:35:34;;;;;;;1.15;0.57;;;;;;;29.13;48.35;98514.84;2079647;28;20149;-50
2023/07/27 03:36:37;;;;;;;0.47;0.47;;;;;;;29.13;48.37;98509.38;2083201;28;20040;-49
2023/07/27 03:37:37;;;;;;;0.90;0.47;;;;;;;29.15;48.37;98518.13;2085499;28;20403;-48
2023/07/27 03:38:38;;;;;;;0.77;0.63;;;;;;;29.14;48.49;98511.84;2086373;28;20112;-49
2023/07/27 03:39:40;;;;;;;1.13;0.60;;;;;;;29.14;48.23;98517.31;2081815;28;20533;-49
2023/07/27 03:40:41;;;;;;;1.70;0.70;;;;;;;29.14;48.31;98516.47;2080902;28;20059;-49
2023/07/27 03:41:42;;;;;;;1.40;0.63;;;;;;;29.13;48.30;98515.66;2079910;28;20064;-48
2023/07/27 03:42:43;;;;;;;1.02;0.50;;;;;;;29.13;48.35;98515.66;2083533;28;20052;-48
2023/07/27 03:43:45;;;;;;;0.65;0.35;;;;;;;29.12;48.09;98514.03;2079869;28;20156;-49
2023/07/27 03:44:46;;;;;;;1.30;0.57;;;;;;;29.12;48.32;98522.22;2084107;28;20040;-49
2023/07/27 03:45:47;;;;;;;1.35;0.52;;;;;;;29.13;48.35;98523.03;2082445;28;20061;-49
2023/07/27 03:46:48;;;;;;;0.82;0.50;;;;;;;29.11;48.37;98523.31;2081547;28;20045;-47
2023/07/27 03:47:50;;;;;;;0.32;0.32;;;;;;;29.12;48.37;98521.41;2081892;28;20688;-50
2023/07/27 03:48:51;;;;;;;1.20;0.50;;;;;;;29.12;48.42;98522.22;2081287;28;20105;-47
2023/07/27 03:49:53;;;;;;;0.60;0.57;;;;;;;29.12;48.39;98524.13;2081013;28;20049;-48
2023/07/27 03:50:55;;;;;;;0.93;0.57;;;;;;;29.11;48.29;98523.31;2080550;28;20069;-47
2023/07/27 03:51:56;;;;;;;1.00;0.77;;;;;;;29.10;48.26;98521.66;2080619;28;20052;-48
2023/07/27 03:52:58;;;;;;;1.40;1.05;;;;;;;29.10;48.31;98527.13;2081972;28;20063;-48
2023/07/27 03:53:58;;;;;;;0.93;0.43;;;;;;;29.08;48.41;98523.84;2080638;28;20049;-50
2023/07/27 03:55:00;;;;;;;0.73;0.30;;;;;;;29.09;48.49;98524.69;2082079;28;20088;-48
2023/07/27 03:56:01;;;;;;;1.23;0.43;;;;;;;29.09;48.38;98519.22;2082118;28;20065;-48
2023/07/27 03:57:04;;;;;;;0.80;0.40;;;;;;;29.09;48.35;98530.16;2078724;28;20091;-47
2023/07/27 03:58:04;;;;;;;3.15;0.60;;;;;;;29.10;48.23;98526.31;2077262;28;20064;-48
2023/07/27 03:59:06;;;;;;;0.63;0.43;;;;;;;29.11;48.34;98530.66;2079815;28;20045;-48
2023/07/27 04:00:08;;;;;;;0.57;0.38;;;;;;;29.10;48.32;98532.59;2080165;28;20051;-48
2023/07/27 04:01:10;;;;;;;1.95;0.40;;;;;;;29.09;48.42;98533.69;2079761;28;20049;-51
2023/07/27 04:02:11;;;;;;;0.90;0.50;;;;;;;29.10;48.34;98538.06;2078034;28;20049;-55
2023/07/27 04:03:11;;;;;;;0.95;0.50;;;;;;;29.07;48.41;98532.31;2078914;28;20324;-49
2023/07/27 04:04:13;;;;;;;0.82;0.50;;;;;;;29.08;48.42;98532.03;2081223;28;20049;-49
2023/07/27 04:05:15;;;;;;;3.30;1.00;;;;;;;29.08;48.36;98534.75;2080431;28;20041;-49
2023/07/27 04:06:17;;;;;;;1.80;0.75;;;;;;;29.09;48.38;98544.63;2079662;28;20057;-55
2023/07/27 04:07:18;;;;;;;1.63;0.45;;;;;;;29.09;48.53;98549.25;2084247;28;20094;-48
2023/07/27 04:08:20;;;;;;;1.48;0.50;;;;;;;29.06;48.39;98542.44;2080053;28;20362;-48
2023/07/27 04:09:21;;;;;;;0.80;0.40;;;;;;;29.07;48.37;98544.06;2081437;28;20052;-51
2023/07/27 04:10:24;;;;;;;0.40;0.22;;;;;;;29.05;48.41;98548.97;2082046;28;20046;-47
2023/07/27 04:11:25;;;;;;;1.08;0.70;;;;;;;29.05;48.40;98543.50;2079285;28;20049;-49
2023/07/27 04:12:27;;;;;;;0.70;0.47;;;;;;;29.06;48.49;98541.59;2081068;28;20080;-49
2023/07/27 04:13:27;;;;;;;1.20;0.50;;;;;;;29.06;48.34;98547.06;2080835;28;21953;-49
2023/07/27 04:14:29;;;;;;;1.45;0.73;;;;;;;29.08;48.48;98542.16;2081296;28;20648;-48
2023/07/27 04:15:30;;;;;;;1.58;0.52;;;;;;;29.06;48.41;98545.16;2080281;28;20056;-49
2023/07/27 04:16:32;;;;;;;1.80;1.02;;;;;;;29.05;48.41;98545.44;2083377;28;20207;-48
2023/07/27 04:17:33;;;;;;;0.73;0.55;;;;;;;29.07;48.32;98548.72;2082356;28;20045;-50
2023/07/27 04:18:33;;;;;;;1.15;0.90;;;;;;;29.04;48.67;98550.06;2081630;28;20061;-50
2023/07/27 04:19:35;;;;;;;1.33;0.75;;;;;;;29.04;48.30;98552.81;2078923;28;20145;-50
2023/07/27 04:20:38;;;;;;;0.88;0.60;;;;;;;29.05;48.43;98557.16;2079181;28;20060;-50
2023/07/27 04:21:39;;;;;;;1.48;1.05;;;;;;;29.06;48.36;98550.63;2081188;28;20163;-50
2023/07/27 04:22:40;;;;;;;1.55;0.90;;;;;;;29.04;48.39;98552.81;2081558;28;20295;-50
2023/07/27 04:23:42;;;;;;;0.50;0.50;;;;;;;29.05;48.42;98553.63;2082829;28;20050;-48
2023/07/27 04:24:45;;;;;;;1.67;0.50;;;;;;;29.05;48.42;98553.63;2082792;28;20463;-48
2023/07/27 04:25:46;;;;;;;0.57;0.50;;;;;;;29.05;48.48;98553.63;2082985;28;20473;-49
2023/07/27 04:26:47;;;;;;;1.42;0.73;;;;;;;29.04;48.41;98555.53;2082131;28;20053;-49
2023/07/27 04:27:50;;;;;;;1.70;0.70;;;;;;;29.05;48.37;98554.44;2079768;28;20542;-49
2023/07/27 04:28:50;;;;;;;1.45;0.70;;;;;;;29.05;48.36;98556.34;2086311;28;20040;-51
2023/07/27 04:29:52;;;;;;;2.00;0.77;;;;;;;29.04;48.26;98554.72;2083495;28;20073;-51
2023/07/27 04:30:53;;;;;;;0.60;0.55;;;;;;;29.06;48.40;98557.97;2081528;28;20049;-47
2023/07/27 04:31:55;;;;;;;1.40;0.65;;;;;;;29.05;48.31;98550.88;2080114;28;20104;-49
2023/07/27 04:32:55;;;;;;;1.13;0.50;;;;;;;29.04;48.53;98558.28;2081051;28;20607;-47
2023/07/27 04:33:57;;;;;;;0.98;0.47;;;;;;;29.04;48.29;98554.72;2080944;28;20037;-49
2023/07/27 04:34:58;;;;;;;0.30;0.30;;;;;;;29.04;48.35;98561.00;2082634;28;20045;-47
2023/07/27 04:36:02;;;;;;;1.27;0.50;;;;;;;29.04;48.37;98561.00;2082524;28;20457;-48
2023/07/27 04:37:03;;;;;;;2.58;0.68;;;;;;;29.02;48.36;98554.94;2079088;28;20064;-50
2023/07/27 04:38:05;;;;;;;1.67;0.50;;;;;;;29.01;48.46;98566.97;2083312;28;20041;-50
2023/07/27 04:39:06;;;;;;;0.85;0.63;;;;;;;29.02;48.53;98568.59;2082508;28;20245;-49
2023/07/27 04:40:08;;;;;;;0.65;0.50;;;;;;;29.01;48.38;98569.72;2081952;28;20129;-47
2023/07/27 04:41:09;;;;;;;0.77;0.50;;;;;;;29.00;48.53;98570.78;2083285;28;20055;-48
2023/07/27 04:42:11;;;;;;;0.82;0.50;;;;;;;29.00;48.48;98570.78;2078733;28;20203;-50
2023/07/27 04:43:12;;;;;;;2.40;0.57;;;;;;;29.00;48.41;98565.31;2081028;28;20076;-47
2023/07/27 04:44:13;;;;;;;1.48;0.55;;;;;;;29.00;48.51;98576.25;2080037;28;20041;-51
2023/07/27 04:45:14;;;;;;;0.65;0.60;;;;;;;29.00;48.46;98570.78;2082403;28;20048;-48
2023/07/27 04:46:16;;;;;;;1.13;0.52;;;;;;;29.02;48.39;98570.53;2078525;28;20071;-47
2023/07/27 04:47:17;;;;;;;2.08;0.60;;;;;;;29.02;48.51;98568.59;2082297;28;20044;-48
2023/07/27 04:48:19;;;;;;;0.82;0.50;;;;;;;29.00;48.44;98573.50;2080989;28;20591;-47
2023/07/27 04:49:19;;;;;;;1.50;0.70;;;;;;;29.00;48.41;98573.50;2081253;28;20049;-49
2023/07/27 04:50:21;;;;;;;0.90;0.63;;;;;;;29.01;48.31;98575.16;2079103;28;20075;-48
2023/07/27 04:51:24;;;;;;;2.05;0.90;;;;;;;29.00;48.49;98572.69;2079796;28;20053;-48
2023/07/27 04:52:25;;;;;;;1.90;0.63;;;;;;;28.99;48.40;98574.63;2080617;28;20053;-48
2023/07/27 04:53:26;;;;;;;1.90;0.68;;;;;;;28.98;48.47;98580.38;2083026;28;20644;-48
2023/07/27 04:54:28;;;;;;;1.48;0.73;;;;;;;28.97;48.46;98579.53;2080560;28;20041;-51
2023/07/27 04:55:29;;;;;;;0.93;0.50;;;;;;;28.97;48.28;98579.53;2093779;28;20499;-50
2023/07/27 04:56:31;;;;;;;0.40;0.35;;;;;;;28.97;48.47;98576.78;2090649;28;20128;-47